Cumberland Center, Maine
Current Conditions -  °F | °C
As of 2:51 PM on Sunday 28 Dec 2014 (Local Time) from KPWM Reporting Station
Overcast Overcast  
Wind Chill: 50°   Ceiling: 22000
Heat Index: 50°   Visibility: 10mi
Dew Point: 37°   Wind: 10mph
Humidity: 61%   Direction: 280°W
Pressure: 29.76"   Gusts: NA
Location:  43.8°N, 70.25°W
Report Text: KPWM 281951Z 28009KT 10SM OVC220 10/03 A2976 RMK AO2 SLP076 T01000028
Loading
Personal Weather Stations






























Interactive Weather Map New forecast layout! Learn more

10-Day Weather Forecast

Advertisements
Track Severe Weather on mobile